sensor_id;sensor_type;location;lat;lon;timestamp;P1;durP1;ratioP1;P2;durP2;ratioP2
9809;SDS011;4944;52.514;13.192;2023-03-01T00:00:16;12.70;;;9.30;;
9809;SDS011;4944;52.514;13.192;2023-03-01T00:02:43;13.50;;;9.83;;
9809;SDS011;4944;52.514;13.192;2023-03-01T00:05:10;14.53;;;9.43;;
9809;SDS011;4944;52.514;13.192;2023-03-01T00:07:37;12.03;;;9.00;;
9809;SDS011;4944;52.514;13.192;2023-03-01T00:10:06;12.23;;;9.23;;
9809;SDS011;4944;52.514;13.192;2023-03-01T00:12:33;13.03;;;9.47;;
9809;SDS011;4944;52.514;13.192;2023-03-01T00:15:01;13.57;;;9.37;;
9809;SDS011;4944;52.514;13.192;2023-03-01T00:17:29;13.40;;;9.57;;
9809;SDS011;4944;52.514;13.192;2023-03-01T00:19:56;16.47;;;9.97;;
9809;SDS011;4944;52.514;13.192;2023-03-01T00:22:23;13.60;;;9.83;;
9809;SDS011;4944;52.514;13.192;2023-03-01T00:24:53;14.03;;;9.50;;
9809;SDS011;4944;52.514;13.192;2023-03-01T00:27:21;12.40;;;9.43;;
9809;SDS011;4944;52.514;13.192;2023-03-01T00:29:48;12.47;;;9.10;;
9809;SDS011;4944;52.514;13.192;2023-03-01T00:32:15;12.97;;;9.33;;
9809;SDS011;4944;52.514;13.192;2023-03-01T00:34:41;9.17;;;8.20;;
9809;SDS011;4944;52.514;13.192;2023-03-01T00:37:19;9.60;;;8.20;;
9809;SDS011;4944;52.514;13.192;2023-03-01T00:39:46;10.67;;;8.57;;
9809;SDS011;4944;52.514;13.192;2023-03-01T00:42:13;13.50;;;8.50;;
9809;SDS011;4944;52.514;13.192;2023-03-01T00:44:41;11.63;;;8.27;;
9809;SDS011;4944;52.514;13.192;2023-03-01T00:47:08;9.83;;;8.23;;
9809;SDS011;4944;52.514;13.192;2023-03-01T00:49:35;9.50;;;7.77;;
9809;SDS011;4944;52.514;13.192;2023-03-01T00:52:02;11.27;;;8.77;;
9809;SDS011;4944;52.514;13.192;2023-03-01T00:54:29;12.13;;;8.50;;
9809;SDS011;4944;52.514;13.192;2023-03-01T00:56:56;10.93;;;8.53;;
9809;SDS011;4944;52.514;13.192;2023-03-01T00:59:23;13.23;;;8.97;;
9809;SDS011;4944;52.514;13.192;2023-03-01T01:01:51;10.97;;;8.97;;
9809;SDS011;4944;52.514;13.192;2023-03-01T01:04:18;14.70;;;10.00;;
9809;SDS011;4944;52.514;13.192;2023-03-01T01:06:45;15.67;;;9.57;;
9809;SDS011;4944;52.514;13.192;2023-03-01T01:09:14;14.20;;;9.87;;
9809;SDS011;4944;52.514;13.192;2023-03-01T01:11:43;12.20;;;8.83;;
9809;SDS011;4944;52.514;13.192;2023-03-01T01:14:11;12.30;;;8.47;;
9809;SDS011;4944;52.514;13.192;2023-03-01T01:16:39;11.10;;;7.90;;
9809;SDS011;4944;52.514;13.192;2023-03-01T01:19:07;12.27;;;8.30;;
9809;SDS011;4944;52.514;13.192;2023-03-01T01:21:35;9.27;;;8.27;;
9809;SDS011;4944;52.514;13.192;2023-03-01T01:24:02;9.03;;;7.70;;
9809;SDS011;4944;52.514;13.192;2023-03-01T01:26:31;12.07;;;7.67;;
9809;SDS011;4944;52.514;13.192;2023-03-01T01:28:59;10.00;;;7.80;;
9809;SDS011;4944;52.514;13.192;2023-03-01T01:31:26;9.53;;;7.30;;
9809;SDS011;4944;52.514;13.192;2023-03-01T01:33:55;13.37;;;7.37;;
9809;SDS011;4944;52.514;13.192;2023-03-01T01:36:23;9.27;;;7.47;;
9809;SDS011;4944;52.514;13.192;2023-03-01T01:38:50;8.73;;;7.73;;
9809;SDS011;4944;52.514;13.192;2023-03-01T01:41:17;9.13;;;7.57;;
9809;SDS011;4944;52.514;13.192;2023-03-01T01:43:46;9.63;;;6.80;;
9809;SDS011;4944;52.514;13.192;2023-03-01T01:46:20;10.60;;;8.30;;
9809;SDS011;4944;52.514;13.192;2023-03-01T01:48:52;8.10;;;7.30;;
9809;SDS011;4944;52.514;13.192;2023-03-01T01:51:25;10.00;;;8.20;;
9809;SDS011;4944;52.514;13.192;2023-03-01T01:54:03;13.00;;;8.43;;
9809;SDS011;4944;52.514;13.192;2023-03-01T01:56:34;9.90;;;7.60;;
9809;SDS011;4944;52.514;13.192;2023-03-01T01:59:03;10.77;;;8.03;;
9809;SDS011;4944;52.514;13.192;2023-03-01T02:01:30;10.00;;;7.90;;
9809;SDS011;4944;52.514;13.192;2023-03-01T02:03:58;9.43;;;7.70;;
9809;SDS011;4944;52.514;13.192;2023-03-01T02:06:27;10.50;;;8.00;;
9809;SDS011;4944;52.514;13.192;2023-03-01T02:08:59;10.27;;;7.70;;
9809;SDS011;4944;52.514;13.192;2023-03-01T02:11:28;10.63;;;8.77;;
9809;SDS011;4944;52.514;13.192;2023-03-01T02:13:57;10.10;;;7.83;;
9809;SDS011;4944;52.514;13.192;2023-03-01T02:16:24;12.13;;;8.47;;
9809;SDS011;4944;52.514;13.192;2023-03-01T02:18:54;10.13;;;8.17;;
9809;SDS011;4944;52.514;13.192;2023-03-01T02:21:25;10.40;;;8.13;;
9809;SDS011;4944;52.514;13.192;2023-03-01T02:24:03;9.37;;;7.57;;
9809;SDS011;4944;52.514;13.192;2023-03-01T02:26:39;11.07;;;8.00;;
9809;SDS011;4944;52.514;13.192;2023-03-01T02:29:12;10.43;;;8.13;;
9809;SDS011;4944;52.514;13.192;2023-03-01T02:31:39;11.10;;;8.57;;
9809;SDS011;4944;52.514;13.192;2023-03-01T02:34:11;12.03;;;8.13;;
9809;SDS011;4944;52.514;13.192;2023-03-01T02:36:40;12.20;;;7.80;;
9809;SDS011;4944;52.514;13.192;2023-03-01T02:39:12;10.87;;;8.07;;
9809;SDS011;4944;52.514;13.192;2023-03-01T02:41:44;12.43;;;7.67;;
9809;SDS011;4944;52.514;13.192;2023-03-01T02:44:15;9.27;;;8.10;;
9809;SDS011;4944;52.514;13.192;2023-03-01T02:46:42;10.20;;;7.47;;
9809;SDS011;4944;52.514;13.192;2023-03-01T02:49:22;11.37;;;8.17;;
9809;SDS011;4944;52.514;13.192;2023-03-01T02:54:51;8.90;;;7.27;;
9809;SDS011;4944;52.514;13.192;2023-03-01T02:57:23;8.47;;;7.27;;
9809;SDS011;4944;52.514;13.192;2023-03-01T02:59:53;8.37;;;7.10;;
9809;SDS011;4944;52.514;13.192;2023-03-01T03:02:22;8.80;;;7.60;;
9809;SDS011;4944;52.514;13.192;2023-03-01T03:05:01;10.80;;;7.93;;
9809;SDS011;4944;52.514;13.192;2023-03-01T03:07:31;8.57;;;7.00;;
9809;SDS011;4944;52.514;13.192;2023-03-01T03:09:59;8.27;;;7.33;;
9809;SDS011;4944;52.514;13.192;2023-03-01T03:12:26;9.27;;;7.37;;
9809;SDS011;4944;52.514;13.192;2023-03-01T03:14:54;9.23;;;7.60;;
9809;SDS011;4944;52.514;13.192;2023-03-01T03:17:21;11.07;;;7.90;;
9809;SDS011;4944;52.514;13.192;2023-03-01T03:19:48;10.03;;;7.73;;
9809;SDS011;4944;52.514;13.192;2023-03-01T03:22:15;14.27;;;8.07;;
9809;SDS011;4944;52.514;13.192;2023-03-01T03:24:42;11.47;;;7.70;;
9809;SDS011;4944;52.514;13.192;2023-03-01T03:27:09;10.47;;;8.20;;
9809;SDS011;4944;52.514;13.192;2023-03-01T03:29:36;9.17;;;7.60;;
9809;SDS011;4944;52.514;13.192;2023-03-01T03:32:04;11.20;;;7.83;;
9809;SDS011;4944;52.514;13.192;2023-03-01T03:34:32;11.00;;;8.23;;
9809;SDS011;4944;52.514;13.192;2023-03-01T03:36:59;8.97;;;7.50;;
9809;SDS011;4944;52.514;13.192;2023-03-01T03:39:26;9.30;;;6.90;;
9809;SDS011;4944;52.514;13.192;2023-03-01T03:42:00;11.17;;;7.47;;
9809;SDS011;4944;52.514;13.192;2023-03-01T03:44:27;9.23;;;7.10;;
9809;SDS011;4944;52.514;13.192;2023-03-01T03:46:54;9.90;;;7.73;;
9809;SDS011;4944;52.514;13.192;2023-03-01T03:49:22;9.17;;;7.27;;
9809;SDS011;4944;52.514;13.192;2023-03-01T03:51:49;8.70;;;7.80;;
9809;SDS011;4944;52.514;13.192;2023-03-01T03:54:16;7.83;;;6.83;;
9809;SDS011;4944;52.514;13.192;2023-03-01T03:56:43;8.50;;;7.50;;
9809;SDS011;4944;52.514;13.192;2023-03-01T03:59:10;8.97;;;7.30;;
9809;SDS011;4944;52.514;13.192;2023-03-01T04:01:37;13.13;;;7.50;;
9809;SDS011;4944;52.514;13.192;2023-03-01T04:04:04;10.47;;;7.10;;
9809;SDS011;4944;52.514;13.192;2023-03-01T04:06:34;8.20;;;7.33;;
9809;SDS011;4944;52.514;13.192;2023-03-01T04:09:01;9.63;;;7.10;;
9809;SDS011;4944;52.514;13.192;2023-03-01T04:11:28;10.03;;;7.60;;
9809;SDS011;4944;52.514;13.192;2023-03-01T04:13:55;11.03;;;7.03;;
9809;SDS011;4944;52.514;13.192;2023-03-01T04:16:23;8.90;;;7.20;;
9809;SDS011;4944;52.514;13.192;2023-03-01T04:18:50;9.50;;;7.33;;
9809;SDS011;4944;52.514;13.192;2023-03-01T04:21:18;8.50;;;7.13;;
9809;SDS011;4944;52.514;13.192;2023-03-01T04:23:47;9.17;;;7.13;;
9809;SDS011;4944;52.514;13.192;2023-03-01T04:26:17;7.97;;;6.67;;
9809;SDS011;4944;52.514;13.192;2023-03-01T04:28:45;7.97;;;6.93;;
9809;SDS011;4944;52.514;13.192;2023-03-01T04:31:14;9.37;;;6.93;;
9809;SDS011;4944;52.514;13.192;2023-03-01T04:33:46;10.60;;;6.97;;
9809;SDS011;4944;52.514;13.192;2023-03-01T04:36:16;8.53;;;6.90;;
9809;SDS011;4944;52.514;13.192;2023-03-01T04:38:45;8.40;;;7.13;;
9809;SDS011;4944;52.514;13.192;2023-03-01T04:41:14;8.17;;;7.03;;
9809;SDS011;4944;52.514;13.192;2023-03-01T04:43:43;8.40;;;6.90;;
9809;SDS011;4944;52.514;13.192;2023-03-01T04:46:11;9.13;;;7.13;;
9809;SDS011;4944;52.514;13.192;2023-03-01T04:48:40;8.17;;;6.57;;
9809;SDS011;4944;52.514;13.192;2023-03-01T04:51:08;9.50;;;7.50;;
9809;SDS011;4944;52.514;13.192;2023-03-01T04:53:38;9.80;;;7.13;;
9809;SDS011;4944;52.514;13.192;2023-03-01T04:56:07;8.47;;;6.77;;
9809;SDS011;4944;52.514;13.192;2023-03-01T04:58:34;9.00;;;6.73;;
9809;SDS011;4944;52.514;13.192;2023-03-01T05:01:01;8.13;;;6.33;;
9809;SDS011;4944;52.514;13.192;2023-03-01T05:03:40;11.30;;;6.70;;
9809;SDS011;4944;52.514;13.192;2023-03-01T05:06:09;11.83;;;7.03;;
9809;SDS011;4944;52.514;13.192;2023-03-01T05:08:36;8.73;;;6.63;;
9809;SDS011;4944;52.514;13.192;2023-03-01T05:11:03;9.50;;;6.77;;
9809;SDS011;4944;52.514;13.192;2023-03-01T05:13:35;9.40;;;7.60;;
9809;SDS011;4944;52.514;13.192;2023-03-01T05:16:05;10.57;;;7.80;;
9809;SDS011;4944;52.514;13.192;2023-03-01T05:18:36;9.37;;;7.53;;
9809;SDS011;4944;52.514;13.192;2023-03-01T05:21:04;9.57;;;7.43;;
9809;SDS011;4944;52.514;13.192;2023-03-01T05:23:32;8.90;;;7.53;;
9809;SDS011;4944;52.514;13.192;2023-03-01T05:26:00;9.40;;;7.53;;
9809;SDS011;4944;52.514;13.192;2023-03-01T05:28:29;8.37;;;6.93;;
9809;SDS011;4944;52.514;13.192;2023-03-01T05:30:57;11.03;;;7.30;;
9809;SDS011;4944;52.514;13.192;2023-03-01T05:33:25;8.60;;;7.53;;
9809;SDS011;4944;52.514;13.192;2023-03-01T05:35:52;7.67;;;6.87;;
9809;SDS011;4944;52.514;13.192;2023-03-01T05:38:19;8.03;;;6.93;;
9809;SDS011;4944;52.514;13.192;2023-03-01T05:40:48;12.73;;;7.27;;
9809;SDS011;4944;52.514;13.192;2023-03-01T05:43:16;8.33;;;7.27;;
9809;SDS011;4944;52.514;13.192;2023-03-01T05:45:43;7.73;;;6.67;;
9809;SDS011;4944;52.514;13.192;2023-03-01T05:48:12;10.70;;;7.17;;
9809;SDS011;4944;52.514;13.192;2023-03-01T05:50:40;9.23;;;7.23;;
9809;SDS011;4944;52.514;13.192;2023-03-01T05:53:09;10.73;;;7.33;;
9809;SDS011;4944;52.514;13.192;2023-03-01T05:55:38;11.53;;;7.80;;
9809;SDS011;4944;52.514;13.192;2023-03-01T05:58:05;11.27;;;8.23;;
9809;SDS011;4944;52.514;13.192;2023-03-01T06:00:34;10.93;;;8.43;;
9809;SDS011;4944;52.514;13.192;2023-03-01T06:03:01;13.10;;;8.80;;
9809;SDS011;4944;52.514;13.192;2023-03-01T06:05:30;15.80;;;8.87;;
9809;SDS011;4944;52.514;13.192;2023-03-01T06:07:58;10.23;;;8.17;;
9809;SDS011;4944;52.514;13.192;2023-03-01T06:10:25;10.77;;;8.10;;
9809;SDS011;4944;52.514;13.192;2023-03-01T06:12:52;10.83;;;8.53;;
9809;SDS011;4944;52.514;13.192;2023-03-01T06:15:20;13.87;;;8.80;;
9809;SDS011;4944;52.514;13.192;2023-03-01T06:17:47;10.37;;;8.67;;
9809;SDS011;4944;52.514;13.192;2023-03-01T06:20:15;9.10;;;7.80;;
9809;SDS011;4944;52.514;13.192;2023-03-01T06:22:44;8.70;;;7.60;;
9809;SDS011;4944;52.514;13.192;2023-03-01T06:25:13;8.40;;;7.33;;
9809;SDS011;4944;52.514;13.192;2023-03-01T06:27:43;10.63;;;7.47;;
9809;SDS011;4944;52.514;13.192;2023-03-01T06:30:11;9.20;;;7.70;;
9809;SDS011;4944;52.514;13.192;2023-03-01T06:32:39;8.20;;;7.17;;
9809;SDS011;4944;52.514;13.192;2023-03-01T06:35:08;8.70;;;7.70;;
9809;SDS011;4944;52.514;13.192;2023-03-01T06:37:36;8.80;;;7.37;;
9809;SDS011;4944;52.514;13.192;2023-03-01T06:40:05;9.37;;;7.90;;
9809;SDS011;4944;52.514;13.192;2023-03-01T06:42:34;11.43;;;7.77;;
9809;SDS011;4944;52.514;13.192;2023-03-01T06:45:01;8.63;;;7.50;;
9809;SDS011;4944;52.514;13.192;2023-03-01T06:47:28;9.10;;;7.70;;
9809;SDS011;4944;52.514;13.192;2023-03-01T06:49:54;14.07;;;8.33;;
9809;SDS011;4944;52.514;13.192;2023-03-01T06:52:21;11.90;;;8.13;;
9809;SDS011;4944;52.514;13.192;2023-03-01T06:54:48;11.60;;;8.07;;
9809;SDS011;4944;52.514;13.192;2023-03-01T06:57:16;9.60;;;7.73;;
9809;SDS011;4944;52.514;13.192;2023-03-01T06:59:43;9.07;;;7.90;;
9809;SDS011;4944;52.514;13.192;2023-03-01T07:02:10;10.63;;;8.20;;
9809;SDS011;4944;52.514;13.192;2023-03-01T07:04:38;11.93;;;8.20;;
9809;SDS011;4944;52.514;13.192;2023-03-01T07:07:05;10.00;;;8.00;;
9809;SDS011;4944;52.514;13.192;2023-03-01T07:09:32;11.50;;;8.83;;
9809;SDS011;4944;52.514;13.192;2023-03-01T07:11:59;10.50;;;8.50;;
9809;SDS011;4944;52.514;13.192;2023-03-01T07:14:28;12.23;;;8.67;;
9809;SDS011;4944;52.514;13.192;2023-03-01T07:16:55;11.33;;;8.70;;
9809;SDS011;4944;52.514;13.192;2023-03-01T07:19:22;10.20;;;8.53;;
9809;SDS011;4944;52.514;13.192;2023-03-01T07:21:49;11.07;;;8.40;;
9809;SDS011;4944;52.514;13.192;2023-03-01T07:24:16;14.30;;;8.90;;
9809;SDS011;4944;52.514;13.192;2023-03-01T07:26:43;10.30;;;9.20;;
9809;SDS011;4944;52.514;13.192;2023-03-01T07:29:10;11.77;;;9.30;;
9809;SDS011;4944;52.514;13.192;2023-03-01T07:31:38;11.53;;;9.60;;
9809;SDS011;4944;52.514;13.192;2023-03-01T07:34:05;9.83;;;8.67;;
9809;SDS011;4944;52.514;13.192;2023-03-01T07:36:32;10.77;;;8.77;;
9809;SDS011;4944;52.514;13.192;2023-03-01T07:38:59;12.00;;;8.80;;
9809;SDS011;4944;52.514;13.192;2023-03-01T07:41:27;11.70;;;9.43;;
9809;SDS011;4944;52.514;13.192;2023-03-01T07:43:54;11.73;;;9.37;;
9809;SDS011;4944;52.514;13.192;2023-03-01T07:46:21;11.17;;;9.13;;
9809;SDS011;4944;52.514;13.192;2023-03-01T07:48:49;10.57;;;8.57;;
9809;SDS011;4944;52.514;13.192;2023-03-01T07:51:16;10.83;;;8.60;;
9809;SDS011;4944;52.514;13.192;2023-03-01T07:53:45;9.57;;;8.57;;
9809;SDS011;4944;52.514;13.192;2023-03-01T07:56:13;12.97;;;9.27;;
9809;SDS011;4944;52.514;13.192;2023-03-01T07:58:43;12.10;;;9.70;;
9809;SDS011;4944;52.514;13.192;2023-03-01T08:01:11;12.50;;;10.00;;
9809;SDS011;4944;52.514;13.192;2023-03-01T08:03:39;13.10;;;9.73;;
9809;SDS011;4944;52.514;13.192;2023-03-01T08:06:08;12.00;;;9.03;;
9809;SDS011;4944;52.514;13.192;2023-03-01T08:08:37;11.40;;;9.63;;
9809;SDS011;4944;52.514;13.192;2023-03-01T08:11:04;11.87;;;9.37;;
9809;SDS011;4944;52.514;13.192;2023-03-01T08:13:32;12.53;;;9.10;;
9809;SDS011;4944;52.514;13.192;2023-03-01T08:16:03;11.10;;;8.73;;
9809;SDS011;4944;52.514;13.192;2023-03-01T08:18:31;13.00;;;9.27;;
9809;SDS011;4944;52.514;13.192;2023-03-01T08:21:00;25.07;;;9.37;;
9809;SDS011;4944;52.514;13.192;2023-03-01T08:23:29;10.23;;;7.47;;
9809;SDS011;4944;52.514;13.192;2023-03-01T08:26:02;9.57;;;7.67;;
9809;SDS011;4944;52.514;13.192;2023-03-01T08:28:31;9.70;;;8.03;;
9809;SDS011;4944;52.514;13.192;2023-03-01T08:30:58;11.50;;;8.60;;
9809;SDS011;4944;52.514;13.192;2023-03-01T08:33:25;11.90;;;8.40;;
9809;SDS011;4944;52.514;13.192;2023-03-01T08:35:52;10.13;;;8.40;;
9809;SDS011;4944;52.514;13.192;2023-03-01T08:38:18;11.23;;;7.37;;
9809;SDS011;4944;52.514;13.192;2023-03-01T08:40:47;9.20;;;7.70;;
9809;SDS011;4944;52.514;13.192;2023-03-01T08:43:13;9.40;;;7.70;;
9809;SDS011;4944;52.514;13.192;2023-03-01T08:45:42;10.00;;;7.50;;
9809;SDS011;4944;52.514;13.192;2023-03-01T08:48:09;8.37;;;7.53;;
9809;SDS011;4944;52.514;13.192;2023-03-01T08:50:36;8.10;;;7.23;;
9809;SDS011;4944;52.514;13.192;2023-03-01T08:53:03;10.70;;;7.00;;
9809;SDS011;4944;52.514;13.192;2023-03-01T08:55:32;8.07;;;7.10;;
9809;SDS011;4944;52.514;13.192;2023-03-01T08:58:00;9.07;;;7.30;;
9809;SDS011;4944;52.514;13.192;2023-03-01T09:00:27;9.63;;;7.50;;
9809;SDS011;4944;52.514;13.192;2023-03-01T09:02:54;11.73;;;7.37;;
9809;SDS011;4944;52.514;13.192;2023-03-01T09:05:21;6.13;;;5.07;;
9809;SDS011;4944;52.514;13.192;2023-03-01T09:07:48;7.03;;;5.40;;
9809;SDS011;4944;52.514;13.192;2023-03-01T09:10:15;8.20;;;5.60;;
9809;SDS011;4944;52.514;13.192;2023-03-01T09:12:42;10.37;;;6.57;;
9809;SDS011;4944;52.514;13.192;2023-03-01T09:15:10;6.53;;;5.93;;
9809;SDS011;4944;52.514;13.192;2023-03-01T09:17:37;7.60;;;6.07;;
9809;SDS011;4944;52.514;13.192;2023-03-01T09:20:05;9.13;;;5.67;;
9809;SDS011;4944;52.514;13.192;2023-03-01T09:22:32;6.80;;;4.90;;
9809;SDS011;4944;52.514;13.192;2023-03-01T09:25:00;6.10;;;5.00;;
9809;SDS011;4944;52.514;13.192;2023-03-01T09:27:27;5.87;;;5.03;;
9809;SDS011;4944;52.514;13.192;2023-03-01T09:29:53;6.63;;;5.57;;
9809;SDS011;4944;52.514;13.192;2023-03-01T09:32:22;6.53;;;5.93;;
9809;SDS011;4944;52.514;13.192;2023-03-01T09:34:49;5.63;;;5.13;;
9809;SDS011;4944;52.514;13.192;2023-03-01T09:37:30;5.33;;;4.60;;
9809;SDS011;4944;52.514;13.192;2023-03-01T09:39:57;4.83;;;4.00;;
9809;SDS011;4944;52.514;13.192;2023-03-01T09:42:24;7.47;;;4.00;;
9809;SDS011;4944;52.514;13.192;2023-03-01T09:44:54;7.87;;;4.27;;
9809;SDS011;4944;52.514;13.192;2023-03-01T09:47:27;6.40;;;4.83;;
9809;SDS011;4944;52.514;13.192;2023-03-01T09:49:58;9.50;;;4.77;;
9809;SDS011;4944;52.514;13.192;2023-03-01T09:52:32;6.37;;;5.20;;
9809;SDS011;4944;52.514;13.192;2023-03-01T09:55:07;6.10;;;5.47;;
9809;SDS011;4944;52.514;13.192;2023-03-01T09:57:38;5.17;;;4.67;;
9809;SDS011;4944;52.514;13.192;2023-03-01T10:00:24;6.07;;;4.57;;
9809;SDS011;4944;52.514;13.192;2023-03-01T10:03:01;5.70;;;4.33;;
9809;SDS011;4944;52.514;13.192;2023-03-01T10:05:37;5.23;;;4.03;;
9809;SDS011;4944;52.514;13.192;2023-03-01T10:08:19;3.87;;;3.57;;
9809;SDS011;4944;52.514;13.192;2023-03-01T10:10:56;4.63;;;4.23;;
9809;SDS011;4944;52.514;13.192;2023-03-01T10:13:25;4.90;;;4.10;;
9809;SDS011;4944;52.514;13.192;2023-03-01T10:16:01;4.83;;;4.33;;
9809;SDS011;4944;52.514;13.192;2023-03-01T10:18:37;5.57;;;4.57;;
9809;SDS011;4944;52.514;13.192;2023-03-01T10:21:09;4.37;;;3.97;;
9809;SDS011;4944;52.514;13.192;2023-03-01T10:23:42;6.80;;;3.80;;
9809;SDS011;4944;52.514;13.192;2023-03-01T10:26:12;5.23;;;3.83;;
9809;SDS011;4944;52.514;13.192;2023-03-01T10:28:53;4.23;;;3.47;;
9809;SDS011;4944;52.514;13.192;2023-03-01T10:31:27;4.30;;;3.90;;
9809;SDS011;4944;52.514;13.192;2023-03-01T10:34:07;4.40;;;4.00;;
9809;SDS011;4944;52.514;13.192;2023-03-01T10:36:36;5.20;;;3.77;;
9809;SDS011;4944;52.514;13.192;2023-03-01T10:39:10;3.87;;;3.50;;
9809;SDS011;4944;52.514;13.192;2023-03-01T10:41:40;4.10;;;3.70;;
9809;SDS011;4944;52.514;13.192;2023-03-01T10:44:34;3.20;;;2.90;;
9809;SDS011;4944;52.514;13.192;2023-03-01T10:47:03;4.60;;;2.90;;
9809;SDS011;4944;52.514;13.192;2023-03-01T10:49:32;3.83;;;2.90;;
9809;SDS011;4944;52.514;13.192;2023-03-01T10:51:58;3.10;;;2.80;;
9809;SDS011;4944;52.514;13.192;2023-03-01T10:54:44;3.27;;;2.97;;
9809;SDS011;4944;52.514;13.192;2023-03-01T10:57:33;2.77;;;2.50;;
9809;SDS011;4944;52.514;13.192;2023-03-01T11:00:21;2.80;;;2.57;;
9809;SDS011;4944;52.514;13.192;2023-03-01T11:02:51;6.17;;;2.83;;
9809;SDS011;4944;52.514;13.192;2023-03-01T11:05:30;6.13;;;2.40;;
9809;SDS011;4944;52.514;13.192;2023-03-01T11:07:59;2.63;;;2.23;;
9809;SDS011;4944;52.514;13.192;2023-03-01T11:10:28;2.63;;;2.27;;
9809;SDS011;4944;52.514;13.192;2023-03-01T11:13:05;3.23;;;2.20;;
9809;SDS011;4944;52.514;13.192;2023-03-01T11:15:34;2.40;;;2.20;;
9809;SDS011;4944;52.514;13.192;2023-03-01T11:18:02;3.60;;;1.73;;
9809;SDS011;4944;52.514;13.192;2023-03-01T11:20:31;2.33;;;1.60;;
9809;SDS011;4944;52.514;13.192;2023-03-01T11:23:01;2.40;;;1.30;;
9809;SDS011;4944;52.514;13.192;2023-03-01T11:25:32;1.50;;;1.40;;
9809;SDS011;4944;52.514;13.192;2023-03-01T11:28:04;2.17;;;1.70;;
9809;SDS011;4944;52.514;13.192;2023-03-01T11:30:34;3.47;;;1.90;;
9809;SDS011;4944;52.514;13.192;2023-03-01T11:33:11;3.90;;;2.20;;
9809;SDS011;4944;52.514;13.192;2023-03-01T11:35:46;2.40;;;2.20;;
9809;SDS011;4944;52.514;13.192;2023-03-01T11:38:22;1.93;;;1.80;;
9809;SDS011;4944;52.514;13.192;2023-03-01T11:40:52;2.00;;;1.90;;
9809;SDS011;4944;52.514;13.192;2023-03-01T11:43:28;3.47;;;1.70;;
9809;SDS011;4944;52.514;13.192;2023-03-01T11:49:01;1.70;;;1.60;;
9809;SDS011;4944;52.514;13.192;2023-03-01T11:51:45;2.23;;;1.50;;
9809;SDS011;4944;52.514;13.192;2023-03-01T11:54:25;1.87;;;1.70;;
9809;SDS011;4944;52.514;13.192;2023-03-01T11:57:01;1.80;;;1.70;;
9809;SDS011;4944;52.514;13.192;2023-03-01T12:02:41;2.73;;;1.53;;
9809;SDS011;4944;52.514;13.192;2023-03-01T12:08:41;2.87;;;1.43;;
9809;SDS011;4944;52.514;13.192;2023-03-01T12:11:16;1.80;;;1.67;;
9809;SDS011;4944;52.514;13.192;2023-03-01T12:16:59;2.17;;;1.97;;
9809;SDS011;4944;52.514;13.192;2023-03-01T12:19:40;2.07;;;1.80;;
9809;SDS011;4944;52.514;13.192;2023-03-01T12:22:25;2.10;;;2.00;;
9809;SDS011;4944;52.514;13.192;2023-03-01T12:25:07;2.43;;;2.10;;
9809;SDS011;4944;52.514;13.192;2023-03-01T12:27:51;2.43;;;2.00;;
9809;SDS011;4944;52.514;13.192;2023-03-01T12:30:53;3.07;;;2.20;;
9809;SDS011;4944;52.514;13.192;2023-03-01T12:33:29;1.93;;;1.83;;
9809;SDS011;4944;52.514;13.192;2023-03-01T12:36:15;2.83;;;1.90;;
9809;SDS011;4944;52.514;13.192;2023-03-01T12:39:03;3.97;;;1.80;;
9809;SDS011;4944;52.514;13.192;2023-03-01T12:41:46;2.63;;;2.07;;
9809;SDS011;4944;52.514;13.192;2023-03-01T12:44:29;2.53;;;2.33;;
9809;SDS011;4944;52.514;13.192;2023-03-01T12:47:15;3.57;;;1.43;;
9809;SDS011;4944;52.514;13.192;2023-03-01T12:49:57;1.93;;;1.83;;
9809;SDS011;4944;52.514;13.192;2023-03-01T12:52:29;2.57;;;1.90;;
9809;SDS011;4944;52.514;13.192;2023-03-01T12:55:05;1.70;;;1.60;;
9809;SDS011;4944;52.514;13.192;2023-03-01T12:57:44;2.00;;;1.80;;
9809;SDS011;4944;52.514;13.192;2023-03-01T13:00:18;5.17;;;2.10;;
9809;SDS011;4944;52.514;13.192;2023-03-01T13:02:54;4.70;;;2.20;;
9809;SDS011;4944;52.514;13.192;2023-03-01T13:05:29;2.67;;;1.70;;
9809;SDS011;4944;52.514;13.192;2023-03-01T13:08:07;2.87;;;2.00;;
9809;SDS011;4944;52.514;13.192;2023-03-01T13:10:40;2.47;;;2.10;;
9809;SDS011;4944;52.514;13.192;2023-03-01T13:13:19;3.23;;;1.73;;
9809;SDS011;4944;52.514;13.192;2023-03-01T13:15:47;1.93;;;1.83;;
9809;SDS011;4944;52.514;13.192;2023-03-01T13:18:31;3.50;;;2.20;;
9809;SDS011;4944;52.514;13.192;2023-03-01T13:20:59;2.67;;;1.83;;
9809;SDS011;4944;52.514;13.192;2023-03-01T13:23:29;3.40;;;2.33;;
9809;SDS011;4944;52.514;13.192;2023-03-01T13:26:06;2.90;;;2.27;;
9809;SDS011;4944;52.514;13.192;2023-03-01T13:28:50;3.03;;;2.10;;
9809;SDS011;4944;52.514;13.192;2023-03-01T13:34:45;3.33;;;2.10;;
9809;SDS011;4944;52.514;13.192;2023-03-01T13:37:21;3.77;;;2.10;;
9809;SDS011;4944;52.514;13.192;2023-03-01T13:39:55;3.40;;;2.40;;
9809;SDS011;4944;52.514;13.192;2023-03-01T13:42:31;2.50;;;2.30;;
9809;SDS011;4944;52.514;13.192;2023-03-01T13:45:12;2.67;;;2.47;;
9809;SDS011;4944;52.514;13.192;2023-03-01T13:47:45;3.10;;;2.33;;
9809;SDS011;4944;52.514;13.192;2023-03-01T13:50:18;2.70;;;2.50;;
9809;SDS011;4944;52.514;13.192;2023-03-01T13:52:50;13.20;;;2.53;;
9809;SDS011;4944;52.514;13.192;2023-03-01T13:55:23;2.67;;;2.40;;
9809;SDS011;4944;52.514;13.192;2023-03-01T13:57:53;2.50;;;2.30;;
9809;SDS011;4944;52.514;13.192;2023-03-01T14:00:28;3.50;;;2.60;;
9809;SDS011;4944;52.514;13.192;2023-03-01T14:03:01;3.30;;;2.53;;
9809;SDS011;4944;52.514;13.192;2023-03-01T14:05:30;2.70;;;2.50;;
9809;SDS011;4944;52.514;13.192;2023-03-01T14:07:57;2.80;;;2.50;;
9809;SDS011;4944;52.514;13.192;2023-03-01T14:10:25;5.27;;;2.73;;
9809;SDS011;4944;52.514;13.192;2023-03-01T14:13:00;2.80;;;2.60;;
9809;SDS011;4944;52.514;13.192;2023-03-01T14:15:38;4.57;;;2.70;;
9809;SDS011;4944;52.514;13.192;2023-03-01T14:18:14;3.47;;;2.67;;
9809;SDS011;4944;52.514;13.192;2023-03-01T14:20:47;3.03;;;2.60;;
9809;SDS011;4944;52.514;13.192;2023-03-01T14:23:17;4.07;;;2.10;;
9809;SDS011;4944;52.514;13.192;2023-03-01T14:25:46;3.57;;;2.63;;
9809;SDS011;4944;52.514;13.192;2023-03-01T14:28:16;4.37;;;2.33;;
9809;SDS011;4944;52.514;13.192;2023-03-01T14:30:46;4.57;;;2.27;;
9809;SDS011;4944;52.514;13.192;2023-03-01T14:33:22;2.50;;;2.30;;
9809;SDS011;4944;52.514;13.192;2023-03-01T14:35:57;2.50;;;2.30;;
9809;SDS011;4944;52.514;13.192;2023-03-01T14:38:30;3.13;;;2.40;;
9809;SDS011;4944;52.514;13.192;2023-03-01T14:41:00;3.17;;;2.40;;
9809;SDS011;4944;52.514;13.192;2023-03-01T14:43:29;3.27;;;2.47;;
9809;SDS011;4944;52.514;13.192;2023-03-01T14:45:58;2.47;;;2.27;;
9809;SDS011;4944;52.514;13.192;2023-03-01T14:48:26;2.43;;;2.23;;
9809;SDS011;4944;52.514;13.192;2023-03-01T14:50:54;2.80;;;2.60;;
9809;SDS011;4944;52.514;13.192;2023-03-01T14:53:22;5.40;;;2.50;;
9809;SDS011;4944;52.514;13.192;2023-03-01T14:55:53;3.50;;;2.00;;
9809;SDS011;4944;52.514;13.192;2023-03-01T14:58:22;2.80;;;2.33;;
9809;SDS011;4944;52.514;13.192;2023-03-01T15:00:50;3.63;;;1.90;;
9809;SDS011;4944;52.514;13.192;2023-03-01T15:03:23;3.27;;;2.10;;
9809;SDS011;4944;52.514;13.192;2023-03-01T15:05:52;3.90;;;2.30;;
9809;SDS011;4944;52.514;13.192;2023-03-01T15:08:20;2.10;;;1.80;;
9809;SDS011;4944;52.514;13.192;2023-03-01T15:10:57;2.57;;;2.20;;
9809;SDS011;4944;52.514;13.192;2023-03-01T15:13:28;2.07;;;1.97;;
9809;SDS011;4944;52.514;13.192;2023-03-01T15:16:01;6.47;;;2.40;;
9809;SDS011;4944;52.514;13.192;2023-03-01T15:18:36;7.83;;;2.10;;
9809;SDS011;4944;52.514;13.192;2023-03-01T15:21:08;5.63;;;2.23;;
9809;SDS011;4944;52.514;13.192;2023-03-01T15:23:41;3.97;;;2.27;;
9809;SDS011;4944;52.514;13.192;2023-03-01T15:26:17;4.73;;;1.97;;
9809;SDS011;4944;52.514;13.192;2023-03-01T15:28:52;2.70;;;2.10;;
9809;SDS011;4944;52.514;13.192;2023-03-01T15:31:23;2.53;;;1.90;;
9809;SDS011;4944;52.514;13.192;2023-03-01T15:33:53;2.43;;;2.00;;